Time;durP1;ratioP1;P1;durP2;ratioP2;P2;SDS_P1;SDS_P2;PMS_P1;PMS_P2;Temp;Humidity;BMP_temperature;BMP_pressure;BME280_temperature;BME280_humidity;BME280_pressure;Samples;Min_cycle;Max_cycle;Signal;HPM_P1;HPM_P2
2023/12/26 00:00:53;;;;;;;0.10;0.10;;;11.40;99.90;;;;;;5018549;28;20670;-84
2023/12/26 00:03:19;;;;;;;1.43;0.60;;;11.20;99.90;;;;;;5034574;28;20300;-83
2023/12/26 00:05:45;;;;;;;1.33;1.23;;;11.20;99.90;;;;;;5034486;28;20185;-84
2023/12/26 00:08:11;;;;;;;0.30;0.30;;;11.40;99.90;;;;;;5035249;28;20221;-83
2023/12/26 00:10:36;;;;;;;5.80;0.63;;;11.20;99.90;;;;;;5051309;28;20256;-82
2023/12/26 00:13:03;;;;;;;6.90;0.77;;;11.40;99.90;;;;;;5018126;28;20225;-83
2023/12/26 00:15:30;;;;;;;0.97;0.97;;;11.20;99.90;;;;;;5018056;28;20229;-82
2023/12/26 00:17:55;;;;;;;0.73;0.20;;;11.40;99.90;;;;;;5034787;28;20232;-82
2023/12/26 00:20:21;;;;;;;0.13;0.13;;;11.20;99.90;;;;;;5051404;28;20694;-84
2023/12/26 00:22:47;;;;;;;0.30;0.30;;;11.20;99.90;;;;;;5052490;28;20229;-83
2023/12/26 00:25:13;;;;;;;0.30;0.27;;;11.30;99.90;;;;;;5034243;28;20312;-83
2023/12/26 00:27:40;;;;;;;10.83;0.43;;;11.30;99.90;;;;;;5017655;28;20594;-83
2023/12/26 00:30:11;;;;;;;0.10;0.10;;;11.20;99.90;;;;;;5051705;28;20303;-83
2023/12/26 00:32:36;;;;;;;0.23;0.13;;;11.00;99.90;;;;;;5035281;28;20173;-85
2023/12/26 00:35:02;;;;;;;1.13;0.27;;;11.20;99.90;;;;;;5051990;28;20238;-83
2023/12/26 00:37:29;;;;;;;0.33;0.27;;;11.20;99.90;;;;;;5051898;28;20613;-82
2023/12/26 00:39:55;;;;;;;1.53;1.43;;;10.90;99.90;;;;;;5034196;28;20397;-84
2023/12/26 00:42:20;;;;;;;6.00;1.57;;;10.90;99.90;;;;;;5050539;28;20622;-83
2023/12/26 00:44:46;;;;;;;0.53;0.53;;;10.90;99.90;;;;;;5051031;28;20619;-86
2023/12/26 00:47:12;;;;;;;0.10;0.10;;;10.90;99.90;;;;;;5051276;28;20186;-83
2023/12/26 00:49:38;;;;;;;1.70;1.60;;;10.90;99.90;;;;;;5050955;28;20230;-83
2023/12/26 00:52:04;;;;;;;0.80;0.80;;;10.90;99.90;;;;;;5034446;28;20320;-83
2023/12/26 00:54:29;;;;;;;0.60;0.60;;;11.10;99.90;;;;;;5017643;28;20576;-83
2023/12/26 00:56:55;;;;;;;0.60;0.60;;;10.80;99.90;;;;;;5017672;28;20182;-84
2023/12/26 00:59:21;;;;;;;3.57;0.93;;;10.90;99.90;;;;;;5034336;28;20198;-83
2023/12/26 01:01:47;;;;;;;0.97;0.90;;;10.80;99.90;;;;;;5050082;28;20221;-83
2023/12/26 01:04:12;;;;;;;4.33;1.90;;;10.80;99.90;;;;;;5057076;28;20343;-84
2023/12/26 01:06:38;;;;;;;0.17;0.17;;;10.80;99.90;;;;;;5040452;28;20331;-84
2023/12/26 01:09:04;;;;;;;1.73;0.27;;;11.00;99.90;;;;;;5041008;28;20245;-83
2023/12/26 01:11:29;;;;;;;0.10;0.10;;;10.90;99.90;;;;;;5057818;28;20177;-84
2023/12/26 01:13:55;;;;;;;0.67;0.67;;;10.80;99.90;;;;;;5040794;28;20300;-83
2023/12/26 01:16:25;;;;;;;0.87;0.50;;;11.00;99.90;;;;;;5040577;28;20267;-83
2023/12/26 01:18:51;;;;;;;0.10;0.10;;;10.90;99.90;;;;;;5040402;28;20217;-83
2023/12/26 01:21:17;;;;;;;0.43;0.40;;;10.80;99.90;;;;;;5056641;28;20301;-83
2023/12/26 01:23:42;;;;;;;0.83;0.83;;;10.80;99.90;;;;;;5024538;28;20197;-84
2023/12/26 01:26:08;;;;;;;0.30;0.30;;;11.00;99.90;;;;;;5057214;28;20218;-83
2023/12/26 01:28:34;;;;;;;2.00;1.90;;;10.90;99.90;;;;;;5024042;28;20221;-83
2023/12/26 01:31:00;;;;;;;2.97;0.30;;;10.80;99.90;;;;;;5040555;28;20245;-83
2023/12/26 01:33:26;;;;;;;0.50;0.47;;;10.80;99.90;;;;;;5040324;28;20279;-83
2023/12/26 01:35:51;;;;;;;1.00;0.50;;;10.70;99.90;;;;;;5039934;28;20252;-85
2023/12/26 01:38:17;;;;;;;1.00;0.63;;;10.80;99.90;;;;;;5040863;28;20197;-83
2023/12/26 01:40:43;;;;;;;0.40;0.40;;;10.80;99.90;;;;;;5040722;28;20665;-84
2023/12/26 01:43:09;;;;;;;0.80;0.73;;;10.60;99.90;;;;;;5040681;28;20221;-86
2023/12/26 01:45:34;;;;;;;0.50;0.47;;;10.50;99.90;;;;;;5040268;28;20232;-84
2023/12/26 01:48:01;;;;;;;2.47;0.73;;;10.60;99.90;;;;;;5024225;28;20188;-83
2023/12/26 01:50:27;;;;;;;0.73;0.73;;;10.60;99.90;;;;;;5057104;28;20216;-86
2023/12/26 01:52:54;;;;;;;0.67;0.67;;;10.60;99.90;;;;;;5024325;28;20229;-82
2023/12/26 01:55:21;;;;;;;3.87;0.97;;;10.50;99.90;;;;;;5040373;28;20225;-84
2023/12/26 01:57:47;;;;;;;0.40;0.40;;;10.50;99.90;;;;;;5040103;28;20308;-84
2023/12/26 02:00:13;;;;;;;2.77;1.10;;;10.60;99.90;;;;;;5040097;28;20229;-83
2023/12/26 02:02:41;;;;;;;1.33;0.77;;;10.70;99.90;;;;;;5057850;28;20185;-83
2023/12/26 02:05:08;;;;;;;0.97;0.30;;;10.70;99.90;;;;;;5040534;28;20214;-83
2023/12/26 02:07:34;;;;;;;0.77;0.77;;;10.50;99.90;;;;;;5057926;28;20305;-83
2023/12/26 02:10:03;;;;;;;0.20;0.20;;;10.40;99.90;;;;;;5056481;28;20660;-84
2023/12/26 02:12:28;;;;;;;0.40;0.40;;;10.40;99.90;;;;;;5040301;28;20237;-84
2023/12/26 02:14:54;;;;;;;0.20;0.20;;;10.50;99.90;;;;;;5021002;28;20621;-84
2023/12/26 02:17:23;;;;;;;1.63;1.53;;;10.30;99.90;;;;;;5054097;28;20182;-85
2023/12/26 02:19:49;;;;;;;1.47;0.77;;;10.50;99.90;;;;;;5036906;28;20222;-83
2023/12/26 02:22:15;;;;;;;1.80;1.70;;;10.30;99.90;;;;;;5036738;28;20218;-83
2023/12/26 02:24:42;;;;;;;0.70;0.40;;;10.30;99.90;;;;;;5054568;28;20213;-84
2023/12/26 02:27:24;;;;;;;1.80;0.83;;;10.30;99.90;;;;;;5036432;28;20213;-85
2023/12/26 02:29:52;;;;;;;0.60;0.60;;;10.50;99.90;;;;;;5036504;28;20209;-85
2023/12/26 02:32:20;;;;;;;0.77;0.43;;;10.40;99.90;;;;;;5037629;28;20270;-84
2023/12/26 02:34:48;;;;;;;0.30;0.30;;;10.40;99.90;;;;;;5036391;28;20796;-86
2023/12/26 02:37:14;;;;;;;0.33;0.33;;;10.30;99.90;;;;;;5054441;28;20245;-85
2023/12/26 02:39:43;;;;;;;2.80;0.53;;;10.40;99.90;;;;;;5019977;28;20305;-83
2023/12/26 02:42:10;;;;;;;4.13;0.93;;;10.40;99.90;;;;;;5036485;28;20302;-85
2023/12/26 02:44:36;;;;;;;0.10;0.10;;;10.30;99.90;;;;;;5053525;28;20174;-83
2023/12/26 02:47:02;;;;;;;9.17;0.87;;;10.10;99.90;;;;;;5053328;28;20547;-83
2023/12/26 02:49:27;;;;;;;0.93;0.93;;;10.20;99.90;;;;;;5036198;28;20284;-83
2023/12/26 02:51:53;;;;;;;0.53;0.53;;;10.00;99.90;;;;;;5036301;28;20229;-87
2023/12/26 02:54:19;;;;;;;0.57;0.57;;;10.10;99.90;;;;;;5036363;28;20229;-83
2023/12/26 02:56:46;;;;;;;3.27;0.73;;;10.00;99.90;;;;;;5053225;28;20273;-85
2023/12/26 02:59:12;;;;;;;0.47;0.47;;;10.10;99.90;;;;;;5053677;28;20644;-85
2023/12/26 03:01:37;;;;;;;0.20;0.20;;;9.90;99.90;;;;;;5053937;28;20222;-84
2023/12/26 03:04:03;;;;;;;0.63;0.50;;;9.90;99.90;;;;;;5035963;28;20226;-83
2023/12/26 03:06:29;;;;;;;0.50;0.50;;;9.90;99.90;;;;;;5052368;28;20217;-83
2023/12/26 03:08:55;;;;;;;2.20;0.80;;;9.80;99.90;;;;;;5019251;28;20235;-84
2023/12/26 03:11:20;;;;;;;0.17;0.17;;;9.80;99.90;;;;;;5054113;28;20241;-84
2023/12/26 03:13:46;;;;;;;0.33;0.33;;;9.80;99.90;;;;;;5035828;28;20696;-84
2023/12/26 03:16:12;;;;;;;1.37;1.37;;;9.70;99.90;;;;;;5019428;28;20218;-86
2023/12/26 03:18:38;;;;;;;1.37;0.40;;;9.70;99.90;;;;;;5035395;28;20230;-84
2023/12/26 03:21:03;;;;;;;13.93;1.43;;;9.60;99.90;;;;;;5036222;28;20300;-86
2023/12/26 03:23:29;;;;;;;0.20;0.20;;;9.60;99.90;;;;;;5019576;28;20178;-83
2023/12/26 03:25:55;;;;;;;0.20;0.20;;;9.60;99.90;;;;;;5051798;28;20297;-83
2023/12/26 03:28:21;;;;;;;2.80;1.20;;;9.50;99.90;;;;;;5019010;28;20657;-84
2023/12/26 03:30:49;;;;;;;0.20;0.20;;;9.60;99.90;;;;;;5035392;28;20233;-83
2023/12/26 03:33:18;;;;;;;0.77;0.77;;;9.50;99.90;;;;;;5052231;28;20218;-83
2023/12/26 03:35:44;;;;;;;0.90;0.90;;;9.50;99.90;;;;;;5048779;28;20313;-85
2023/12/26 03:38:09;;;;;;;2.57;0.63;;;9.50;99.90;;;;;;5016286;28;20628;-84
2023/12/26 03:40:35;;;;;;;0.30;0.30;;;9.40;99.90;;;;;;5049309;28;20565;-85
2023/12/26 03:43:01;;;;;;;0.97;0.63;;;9.50;99.90;;;;;;4999325;28;20545;-84
2023/12/26 03:45:28;;;;;;;2.37;1.40;;;9.40;99.90;;;;;;5023543;28;20268;-84
2023/12/26 03:47:54;;;;;;;1.70;0.63;;;9.40;99.90;;;;;;5031894;28;20210;-84
2023/12/26 03:50:20;;;;;;;0.30;0.30;;;9.40;99.90;;;;;;4999466;28;20238;-84
2023/12/26 03:52:46;;;;;;;4.90;1.30;;;9.40;99.90;;;;;;5032958;28;20217;-83
2023/12/26 03:55:14;;;;;;;1.70;1.37;;;9.40;99.90;;;;;;4999361;28;20219;-84
2023/12/26 03:57:41;;;;;;;0.53;0.23;;;9.40;99.90;;;;;;5031828;28;20207;-84
2023/12/26 04:00:08;;;;;;;2.73;0.30;;;9.40;99.90;;;;;;5015691;28;20295;-84
2023/12/26 04:02:34;;;;;;;2.73;0.67;;;9.40;99.90;;;;;;5015802;28;20290;-84
2023/12/26 04:05:02;;;;;;;0.60;0.60;;;9.40;99.90;;;;;;5015133;28;20223;-85
2023/12/26 04:07:28;;;;;;;2.70;0.60;;;9.50;99.90;;;;;;5032016;28;20210;-84
2023/12/26 04:09:54;;;;;;;0.50;0.50;;;9.50;99.90;;;;;;4998664;28;20253;-83
2023/12/26 04:12:19;;;;;;;1.13;0.67;;;9.40;99.90;;;;;;5014703;28;20297;-85
2023/12/26 04:14:47;;;;;;;0.13;0.13;;;9.30;99.90;;;;;;5015556;28;20187;-83
2023/12/26 04:17:17;;;;;;;15.63;1.07;;;9.40;99.90;;;;;;5048102;28;20191;-85
2023/12/26 04:19:43;;;;;;;1.30;1.20;;;9.50;99.90;;;;;;5015242;28;20233;-84
2023/12/26 04:22:12;;;;;;;2.00;0.60;;;9.40;99.90;;;;;;5031385;28;20293;-83
2023/12/26 04:24:37;;;;;;;0.40;0.40;;;9.40;99.90;;;;;;5031145;28;20210;-84
2023/12/26 04:27:03;;;;;;;1.03;0.53;;;9.40;99.90;;;;;;5047660;28;20240;-83
2023/12/26 04:29:32;;;;;;;0.40;0.40;;;9.40;99.90;;;;;;4999573;28;20233;-84
2023/12/26 04:31:57;;;;;;;1.60;0.93;;;9.40;99.90;;;;;;5048271;28;20657;-85
2023/12/26 04:34:23;;;;;;;2.10;1.00;;;9.40;99.90;;;;;;5014947;28;20242;-84
2023/12/26 04:36:49;;;;;;;1.20;0.30;;;9.30;99.90;;;;;;5031176;28;20693;-85
2023/12/26 04:39:14;;;;;;;4.23;0.70;;;9.30;99.90;;;;;;5030886;28;20654;-83
2023/12/26 04:41:40;;;;;;;1.63;0.67;;;9.40;99.90;;;;;;5015323;28;20623;-83
2023/12/26 04:44:06;;;;;;;6.47;0.60;;;9.40;99.90;;;;;;5014912;28;20215;-83
2023/12/26 04:46:32;;;;;;;2.23;1.33;;;9.30;99.90;;;;;;5030730;28;20210;-83
2023/12/26 04:48:57;;;;;;;0.40;0.40;;;9.40;99.90;;;;;;5030707;28;20271;-83
2023/12/26 04:51:25;;;;;;;1.20;1.10;;;9.40;99.90;;;;;;5030606;28;20632;-84
2023/12/26 04:53:51;;;;;;;0.20;0.20;;;9.40;99.90;;;;;;5031242;28;20182;-83
2023/12/26 04:56:20;;;;;;;0.10;0.10;;;9.20;99.90;;;;;;5031786;28;20627;-84
2023/12/26 04:58:48;;;;;;;3.37;1.30;;;9.30;99.90;;;;;;5030934;28;20226;-85
2023/12/26 05:01:14;;;;;;;2.13;1.23;;;9.30;99.90;;;;;;5047245;28;20261;-83
2023/12/26 05:03:40;;;;;;;0.40;0.40;;;9.20;99.90;;;;;;5030728;28;20218;-83
2023/12/26 05:06:06;;;;;;;5.20;0.93;;;9.20;99.90;;;;;;5047759;28;20602;-83
2023/12/26 05:08:32;;;;;;;16.03;1.00;;;9.10;99.90;;;;;;5032129;28;20627;-83
2023/12/26 05:10:57;;;;;;;0.20;0.20;;;9.30;99.90;;;;;;5013947;28;20226;-83
2023/12/26 05:13:23;;;;;;;0.70;0.60;;;9.30;99.90;;;;;;5047078;28;20227;-83
2023/12/26 05:15:49;;;;;;;0.90;0.83;;;9.40;99.90;;;;;;5030513;28;20288;-83
2023/12/26 05:18:15;;;;;;;2.77;1.20;;;9.50;99.90;;;;;;5030880;28;20217;-84
2023/12/26 05:20:41;;;;;;;6.97;1.10;;;9.50;99.90;;;;;;5030864;28;20552;-82
2023/12/26 05:23:06;;;;;;;0.27;0.27;;;9.70;99.90;;;;;;5030100;28;20214;-83
2023/12/26 05:25:35;;;;;;;0.60;0.60;;;9.50;99.90;;;;;;5030579;28;20222;-82
2023/12/26 05:28:00;;;;;;;0.57;0.57;;;9.60;99.90;;;;;;5030242;28;20221;-84
2023/12/26 05:30:26;;;;;;;2.20;1.17;;;9.50;99.90;;;;;;5030804;28;20617;-82
2023/12/26 05:32:52;;;;;;;0.60;0.47;;;9.60;99.90;;;;;;5030696;28;20210;-83
2023/12/26 05:35:18;;;;;;;6.03;0.63;;;9.50;99.90;;;;;;5014137;28;20231;-83
2023/12/26 05:37:48;;;;;;;1.03;0.60;;;9.50;99.90;;;;;;5030352;28;20233;-83
2023/12/26 05:40:14;;;;;;;1.87;0.53;;;9.50;99.90;;;;;;5030481;28;20260;-83
2023/12/26 05:42:40;;;;;;;0.60;0.60;;;9.40;99.90;;;;;;5030017;28;20218;-82
2023/12/26 05:45:06;;;;;;;0.20;0.20;;;9.30;99.90;;;;;;5030000;28;20216;-87
2023/12/26 05:47:34;;;;;;;5.90;0.70;;;9.30;99.90;;;;;;5031091;28;20607;-83
2023/12/26 05:50:00;;;;;;;1.93;1.07;;;9.20;99.90;;;;;;5048073;28;20583;-83
2023/12/26 05:52:26;;;;;;;4.97;2.53;;;9.30;99.90;;;;;;5033735;28;20230;-83
2023/12/26 05:54:52;;;;;;;0.30;0.23;;;9.20;99.90;;;;;;5033770;28;20234;-85
2023/12/26 05:57:18;;;;;;;3.27;1.70;;;9.20;99.90;;;;;;5050358;28;20211;-83
2023/12/26 05:59:43;;;;;;;2.93;0.80;;;9.10;99.90;;;;;;5034533;28;20525;-84
2023/12/26 06:02:09;;;;;;;0.83;0.83;;;9.20;99.90;;;;;;5033947;28;20218;-84
2023/12/26 06:04:37;;;;;;;8.90;1.43;;;9.20;99.90;;;;;;5017260;28;20223;-83
2023/12/26 06:07:03;;;;;;;2.70;1.20;;;9.20;99.90;;;;;;5035227;28;20223;-83
2023/12/26 06:09:29;;;;;;;0.60;0.60;;;9.10;99.90;;;;;;5033721;28;20566;-82
2023/12/26 06:11:55;;;;;;;0.87;0.87;;;9.20;99.90;;;;;;5034213;28;20638;-84
2023/12/26 06:14:24;;;;;;;0.33;0.33;;;9.00;99.90;;;;;;5034191;28;20314;-85
2023/12/26 06:16:50;;;;;;;1.60;1.17;;;9.10;99.90;;;;;;5034850;28;20305;-84
2023/12/26 06:19:15;;;;;;;0.30;0.30;;;9.10;99.90;;;;;;5017664;28;20314;-83
2023/12/26 06:21:41;;;;;;;0.97;0.97;;;9.10;99.90;;;;;;5033493;28;20655;-86
2023/12/26 06:24:08;;;;;;;0.37;0.37;;;9.10;99.90;;;;;;5033312;28;20260;-83
2023/12/26 06:26:34;;;;;;;2.53;1.17;;;9.10;99.90;;;;;;5050553;28;20175;-84
2023/12/26 06:29:00;;;;;;;1.00;0.60;;;9.10;99.90;;;;;;5033191;28;20563;-86
2023/12/26 06:31:25;;;;;;;2.47;0.47;;;9.10;99.90;;;;;;5033223;28;20239;-84
2023/12/26 06:33:51;;;;;;;8.53;1.00;;;9.00;99.90;;;;;;5034334;28;20214;-87
2023/12/26 06:36:17;;;;;;;4.53;0.50;;;9.10;99.90;;;;;;5053997;28;20241;-84
2023/12/26 06:38:43;;;;;;;1.00;0.60;;;9.10;99.90;;;;;;5020328;28;20618;-86
2023/12/26 06:41:10;;;;;;;2.00;1.50;;;9.00;99.90;;;;;;5054166;28;20226;-84
2023/12/26 06:43:37;;;;;;;1.30;0.87;;;9.10;99.90;;;;;;5052961;28;20221;-82
2023/12/26 06:46:06;;;;;;;0.57;0.57;;;9.20;99.90;;;;;;5020126;28;20221;-83
2023/12/26 06:48:32;;;;;;;0.63;0.57;;;9.10;99.90;;;;;;5053935;28;20206;-85
2023/12/26 06:50:58;;;;;;;2.20;0.93;;;9.10;99.90;;;;;;5053124;28;20216;-84
2023/12/26 06:53:23;;;;;;;1.40;1.03;;;9.20;99.90;;;;;;5053055;28;20650;-83
2023/12/26 06:55:49;;;;;;;1.13;0.70;;;9.30;99.90;;;;;;5019638;28;20229;-85
2023/12/26 06:58:15;;;;;;;3.77;1.00;;;9.20;99.90;;;;;;5052561;28;20225;-83
2023/12/26 07:00:41;;;;;;;0.77;0.77;;;9.20;99.90;;;;;;5052140;28;20779;-84
2023/12/26 07:03:08;;;;;;;0.87;0.67;;;9.10;99.90;;;;;;5036388;28;20628;-83
2023/12/26 07:05:34;;;;;;;6.53;0.77;;;9.20;99.90;;;;;;5020743;28;20182;-83
2023/12/26 07:08:00;;;;;;;1.00;0.50;;;9.10;99.90;;;;;;5035979;28;20704;-84
2023/12/26 07:10:26;;;;;;;9.50;1.27;;;9.10;99.90;;;;;;5052551;28;20277;-84
2023/12/26 07:12:51;;;;;;;3.37;2.03;;;9.00;99.90;;;;;;5019668;28;20607;-83
2023/12/26 07:15:17;;;;;;;6.50;0.53;;;9.00;99.90;;;;;;5035796;28;20308;-85
2023/12/26 07:17:43;;;;;;;3.23;1.00;;;9.10;99.90;;;;;;5019522;28;20205;-84
2023/12/26 07:20:09;;;;;;;7.10;3.13;;;9.00;99.90;;;;;;5035572;28;20340;-82
2023/12/26 07:22:36;;;;;;;2.37;2.17;;;9.00;99.90;;;;;;5053105;28;20309;-85
2023/12/26 07:25:02;;;;;;;0.60;0.60;;;9.00;99.90;;;;;;5052884;28;20230;-83
2023/12/26 07:27:28;;;;;;;3.60;1.00;;;9.00;99.90;;;;;;5034991;28;20221;-83
2023/12/26 07:29:54;;;;;;;1.60;0.83;;;9.00;99.90;;;;;;5034845;28;20206;-84
2023/12/26 07:32:20;;;;;;;1.53;1.03;;;9.00;99.90;;;;;;5035400;28;20179;-82
2023/12/26 07:34:49;;;;;;;1.17;0.60;;;9.00;99.90;;;;;;5018582;28;20269;-81
2023/12/26 07:37:15;;;;;;;1.10;0.57;;;8.90;99.90;;;;;;5051889;28;20698;-85
2023/12/26 07:39:41;;;;;;;0.53;0.53;;;8.90;99.90;;;;;;5034917;28;20225;-81
2023/12/26 07:42:08;;;;;;;0.20;0.20;;;9.10;99.90;;;;;;5034672;28;20256;-83
2023/12/26 07:44:33;;;;;;;0.57;0.47;;;9.10;99.90;;;;;;5018681;28;20181;-84
2023/12/26 07:46:59;;;;;;;0.27;0.27;;;9.20;99.90;;;;;;5051374;28;20284;-83
2023/12/26 07:49:25;;;;;;;11.63;2.77;;;9.20;99.90;;;;;;5034895;28;20217;-84
2023/12/26 07:51:50;;;;;;;4.43;1.53;;;9.20;99.90;;;;;;5051356;28;20592;-86
2023/12/26 07:54:16;;;;;;;0.53;0.53;;;9.30;99.90;;;;;;5035231;28;20575;-84
2023/12/26 07:56:42;;;;;;;0.30;0.30;;;9.30;99.90;;;;;;5052282;28;20190;-84
2023/12/26 07:59:10;;;;;;;0.50;0.50;;;9.30;99.90;;;;;;5051178;28;20221;-83
2023/12/26 08:01:36;;;;;;;9.03;1.70;;;9.30;99.90;;;;;;5018691;28;20248;-82
2023/12/26 08:04:01;;;;;;;2.50;0.93;;;9.50;99.90;;;;;;5034813;28;20638;-82
2023/12/26 08:06:27;;;;;;;0.87;0.87;;;9.40;99.90;;;;;;5034354;28;20225;-81
2023/12/26 08:08:53;;;;;;;0.77;0.77;;;9.40;99.90;;;;;;5034314;28;20190;-82
2023/12/26 08:11:23;;;;;;;4.53;1.07;;;9.40;99.90;;;;;;5018391;28;20255;-82
2023/12/26 08:13:49;;;;;;;3.73;1.13;;;9.40;99.90;;;;;;5017484;28;20242;-81
2023/12/26 08:16:14;;;;;;;0.43;0.43;;;9.50;99.90;;;;;;5017784;28;20250;-84
2023/12/26 08:18:40;;;;;;;1.03;0.80;;;9.50;99.90;;;;;;5034587;28;20233;-83
2023/12/26 08:21:06;;;;;;;4.07;0.47;;;9.50;99.90;;;;;;5034344;28;20224;-83
2023/12/26 08:23:35;;;;;;;12.20;0.77;;;9.50;99.90;;;;;;5051682;28;20178;-83
2023/12/26 08:26:06;;;;;;;4.73;0.60;;;9.60;99.90;;;;;;5034180;28;20233;-83
2023/12/26 08:28:32;;;;;;;4.73;1.13;;;9.50;99.90;;;;;;5033945;28;20244;-87
2023/12/26 08:30:58;;;;;;;0.20;0.20;;;9.40;99.90;;;;;;5034081;28;20677;-84
2023/12/26 08:33:24;;;;;;;0.97;0.97;;;9.40;99.90;;;;;;5034206;28;20229;-82
2023/12/26 08:35:50;;;;;;;0.47;0.47;;;9.50;99.90;;;;;;5017392;28;20680;-84
2023/12/26 08:38:16;;;;;;;1.60;1.03;;;9.40;99.90;;;;;;5051349;28;20198;-83
2023/12/26 08:40:42;;;;;;;7.60;0.67;;;9.40;99.90;;;;;;5017379;28;20680;-83
2023/12/26 08:43:08;;;;;;;0.20;0.20;;;9.40;99.90;;;;;;5050156;28;20222;-83
2023/12/26 08:45:35;;;;;;;1.07;1.07;;;9.40;99.90;;;;;;5050396;28;20213;-82
2023/12/26 08:48:02;;;;;;;1.50;0.70;;;9.40;99.90;;;;;;5033709;28;20178;-83
2023/12/26 08:50:27;;;;;;;0.40;0.40;;;9.50;99.90;;;;;;5034377;28;20214;-83
2023/12/26 08:52:53;;;;;;;3.20;1.00;;;9.40;99.90;;;;;;5033856;28;20565;-84
2023/12/26 08:55:19;;;;;;;1.17;0.60;;;9.40;99.90;;;;;;5033963;28;20233;-85
2023/12/26 08:57:45;;;;;;;3.23;1.70;;;9.40;99.90;;;;;;5033950;28;20256;-86
2023/12/26 09:00:13;;;;;;;12.40;0.83;;;9.40;99.90;;;;;;5033977;28;20233;-83
2023/12/26 09:02:43;;;;;;;1.00;1.00;;;9.50;99.90;;;;;;5034901;28;20182;-84
2023/12/26 09:05:11;;;;;;;0.83;0.27;;;9.50;99.90;;;;;;5034021;28;20221;-82
2023/12/26 09:07:37;;;;;;;0.40;0.40;;;9.50;99.90;;;;;;5051578;28;20256;-83
2023/12/26 09:10:05;;;;;;;0.50;0.50;;;9.60;99.90;;;;;;5051605;28;20237;-83
2023/12/26 09:12:34;;;;;;;0.50;0.50;;;9.70;99.90;;;;;;5049981;28;20233;-83
2023/12/26 09:15:00;;;;;;;0.70;0.70;;;9.70;99.90;;;;;;5051227;28;20209;-83
2023/12/26 09:17:26;;;;;;;1.93;0.77;;;9.70;99.90;;;;;;5051887;28;20189;-85
2023/12/26 09:19:51;;;;;;;0.60;0.60;;;9.70;99.90;;;;;;5033817;28;20681;-83
2023/12/26 09:22:17;;;;;;;0.93;0.50;;;9.70;99.90;;;;;;5050504;28;20688;-83
2023/12/26 09:24:43;;;;;;;1.60;0.73;;;9.70;99.90;;;;;;5053848;28;20221;-84
2023/12/26 09:27:09;;;;;;;4.73;0.70;;;9.70;99.90;;;;;;5054506;28;20222;-84
2023/12/26 09:29:35;;;;;;;0.20;0.20;;;9.70;99.90;;;;;;5055466;28;20590;-84
2023/12/26 09:32:01;;;;;;;2.30;2.10;;;9.70;99.90;;;;;;5054413;28;20260;-83
2023/12/26 09:34:26;;;;;;;0.30;0.30;;;9.70;99.90;;;;;;5037107;28;20238;-85
2023/12/26 09:36:53;;;;;;;0.47;0.47;;;9.80;99.90;;;;;;5037342;28;20241;-83
2023/12/26 09:39:19;;;;;;;0.40;0.40;;;9.80;99.90;;;;;;5021003;28;20244;-82
2023/12/26 09:41:54;;;;;;;0.73;0.73;;;9.70;99.90;;;;;;5037511;28;20174;-84
2023/12/26 09:44:20;;;;;;;4.63;1.10;;;9.70;99.90;;;;;;5037410;28;20257;-81
2023/12/26 09:46:46;;;;;;;2.37;0.40;;;9.70;99.90;;;;;;5053621;28;20226;-81
2023/12/26 09:49:12;;;;;;;2.27;0.60;;;9.60;99.90;;;;;;5037159;28;20650;-83
2023/12/26 09:51:44;;;;;;;2.00;1.13;;;9.60;99.90;;;;;;5020663;28;20248;-82
2023/12/26 09:54:12;;;;;;;0.30;0.30;;;9.60;99.90;;;;;;5037333;28;20292;-81
2023/12/26 09:56:42;;;;;;;8.90;0.70;;;9.70;99.90;;;;;;5055710;28;20183;-82
2023/12/26 09:59:09;;;;;;;1.03;0.77;;;9.80;99.90;;;;;;5055047;28;20218;-83
2023/12/26 10:01:35;;;;;;;15.63;0.90;;;9.80;99.90;;;;;;5036707;28;20728;-82
2023/12/26 10:04:03;;;;;;;10.50;1.17;;;9.90;99.90;;;;;;5036932;28;20214;-83
2023/12/26 10:06:29;;;;;;;0.90;0.90;;;10.00;99.90;;;;;;5054584;28;20356;-84
2023/12/26 10:08:55;;;;;;;0.20;0.20;;;10.00;99.90;;;;;;5053106;28;20621;-85
2023/12/26 10:11:21;;;;;;;1.10;0.80;;;9.90;99.90;;;;;;5054885;28;20214;-83
2023/12/26 10:13:52;;;;;;;1.77;0.77;;;9.90;99.90;;;;;;5036766;28;20233;-83
2023/12/26 10:16:19;;;;;;;0.73;0.37;;;9.90;99.90;;;;;;5054706;28;20267;-83
2023/12/26 10:18:46;;;;;;;7.63;1.13;;;9.90;99.90;;;;;;5036841;28;20216;-83
2023/12/26 10:21:13;;;;;;;4.83;1.33;;;9.90;99.90;;;;;;5054687;28;20654;-83
2023/12/26 10:23:39;;;;;;;6.03;2.13;;;9.90;99.90;;;;;;5053613;28;20181;-84
2023/12/26 10:26:05;;;;;;;0.77;0.70;;;10.00;99.90;;;;;;5036978;28;20663;-85
2023/12/26 10:28:38;;;;;;;1.47;1.37;;;9.90;99.90;;;;;;5036809;28;20214;-82
2023/12/26 10:31:14;;;;;;;1.07;0.57;;;10.00;99.90;;;;;;5036354;28;20246;-85
2023/12/26 10:33:41;;;;;;;1.43;1.43;;;10.00;99.90;;;;;;5036523;28;20306;-83
2023/12/26 10:36:08;;;;;;;1.23;1.13;;;10.00;99.90;;;;;;5035082;28;20268;-83
2023/12/26 10:38:34;;;;;;;1.07;1.07;;;10.00;99.90;;;;;;5037073;28;20229;-82
2023/12/26 10:41:05;;;;;;;1.67;0.43;;;10.00;99.90;;;;;;5036343;28;20225;-83
2023/12/26 10:43:32;;;;;;;7.80;0.57;;;10.00;99.90;;;;;;5054430;28;20694;-85
2023/12/26 10:45:59;;;;;;;0.37;0.37;;;10.00;99.90;;;;;;5036178;28;20305;-82
2023/12/26 10:48:32;;;;;;;0.77;0.77;;;10.00;99.90;;;;;;5036259;28;20658;-83
2023/12/26 10:51:02;;;;;;;0.37;0.37;;;10.00;99.90;;;;;;5053858;28;20279;-84
2023/12/26 10:53:43;;;;;;;4.23;1.03;;;10.00;99.90;;;;;;5053544;28;20178;-83
2023/12/26 10:56:11;;;;;;;0.30;0.30;;;10.00;99.90;;;;;;5036172;28;20320;-85
2023/12/26 10:58:39;;;;;;;1.47;0.90;;;10.00;99.90;;;;;;5053755;28;20236;-83
2023/12/26 13:53:26;;;;;;;0.10;0.10;;;8.90;99.90;;;;;;5051160;28;20233;-84
2023/12/26 13:56:29;;;;;;;0.20;0.20;;;8.80;99.90;;;;;;5051423;28;20222;-83
2023/12/26 13:59:32;;;;;;;0.10;0.10;;;8.70;99.90;;;;;;5051081;28;20224;-83
2023/12/26 14:02:35;;;;;;;0.23;0.23;;;8.70;99.90;;;;;;5051114;28;20705;-85
2023/12/26 14:05:38;;;;;;;0.30;0.30;;;8.70;99.90;;;;;;5049818;28;20222;-83
2023/12/26 14:08:42;;;;;;;0.10;0.10;;;8.90;99.90;;;;;;5051117;28;20225;-83
2023/12/26 14:11:45;;;;;;;0.13;0.13;;;9.00;99.90;;;;;;5052530;28;20222;-83
2023/12/26 14:14:48;;;;;;;0.20;0.20;;;8.90;99.90;;;;;;5054608;28;20727;-83
2023/12/26 14:17:51;;;;;;;0.13;0.13;;;8.90;99.90;;;;;;5037014;28;20213;-84
2023/12/26 14:20:54;;;;;;;1.33;0.87;;;8.80;99.90;;;;;;5054252;28;20224;-83
2023/12/26 14:23:58;;;;;;;0.20;0.20;;;8.80;99.90;;;;;;5037489;28;20248;-85
2023/12/26 14:27:06;;;;;;;0.20;0.20;;;8.70;99.90;;;;;;5053468;28;20249;-84
2023/12/26 14:30:09;;;;;;;1.37;1.27;;;8.60;99.90;;;;;;5053151;28;20214;-83
2023/12/26 14:33:19;;;;;;;0.53;0.53;;;8.60;99.90;;;;;;5054532;28;20355;-83
2023/12/26 14:36:23;;;;;;;0.40;0.40;;;8.60;99.90;;;;;;5053832;28;20244;-84
2023/12/26 14:39:26;;;;;;;1.20;0.97;;;8.40;99.90;;;;;;5052655;28;20221;-83
2023/12/26 14:42:29;;;;;;;0.20;0.20;;;8.30;99.90;;;;;;5054224;28;20257;-83
2023/12/26 14:45:32;;;;;;;0.40;0.40;;;8.20;99.90;;;;;;5053113;28;20221;-83
2023/12/26 14:48:36;;;;;;;0.60;0.60;;;8.20;99.90;;;;;;5052852;28;20267;-83
2023/12/26 14:51:39;;;;;;;0.20;0.20;;;8.10;99.90;;;;;;5052586;28;20249;-85
2023/12/26 14:54:42;;;;;;;0.60;0.50;;;8.10;99.90;;;;;;5046037;28;20292;-83
2023/12/26 14:57:45;;;;;;;0.37;0.37;;;8.00;99.90;;;;;;5054432;28;20284;-85
2023/12/26 15:00:49;;;;;;;3.13;1.13;;;7.90;99.90;;;;;;5036700;28;20237;-83
2023/12/26 15:03:14;;;;;;;0.30;0.30;;;7.90;99.90;;;;;;5036549;28;20633;-82
2023/12/26 15:05:40;;;;;;;0.30;0.30;;;7.90;99.90;;;;;;5052280;28;20229;-83
2023/12/26 15:08:06;;;;;;;0.60;0.50;;;7.90;99.90;;;;;;5036009;28;20230;-83
2023/12/26 15:10:32;;;;;;;0.20;0.20;;;8.00;99.90;;;;;;5052222;28;20641;-83
2023/12/26 15:13:00;;;;;;;0.20;0.20;;;8.10;99.90;;;;;;5019291;28;20189;-82
2023/12/26 15:15:25;;;;;;;1.60;1.50;;;8.10;99.90;;;;;;5053483;28;20206;-84
2023/12/26 15:17:51;;;;;;;0.27;0.27;;;8.00;99.90;;;;;;5052278;28;20586;-82
2023/12/26 15:20:17;;;;;;;0.20;0.20;;;7.90;99.90;;;;;;5035260;28;20666;-83
2023/12/26 15:22:43;;;;;;;0.83;0.20;;;7.70;99.90;;;;;;5052639;28;20687;-83
2023/12/26 15:25:08;;;;;;;0.20;0.20;;;7.60;99.90;;;;;;5051915;28;20214;-83
2023/12/26 15:27:34;;;;;;;0.20;0.20;;;7.50;99.90;;;;;;5052300;28;20233;-83
2023/12/26 15:30:00;;;;;;;1.13;0.50;;;7.60;99.90;;;;;;5051436;28;20279;-83
2023/12/26 15:32:26;;;;;;;0.43;0.43;;;7.60;99.90;;;;;;5052169;28;20301;-82
2023/12/26 15:34:52;;;;;;;0.20;0.20;;;7.50;99.90;;;;;;5051931;28;20672;-83
2023/12/26 15:37:17;;;;;;;1.30;0.50;;;7.50;99.90;;;;;;5035449;28;20703;-82
2023/12/26 15:39:43;;;;;;;0.17;0.17;;;7.60;99.90;;;;;;5011279;28;20662;-82
2023/12/26 15:42:09;;;;;;;0.17;0.17;;;7.60;99.90;;;;;;5019103;28;20235;-83
2023/12/26 15:44:35;;;;;;;0.77;0.77;;;7.40;99.90;;;;;;5035443;28;20295;-85
2023/12/26 15:47:01;;;;;;;0.20;0.20;;;7.40;99.90;;;;;;5018624;28;20794;-86
2023/12/26 15:49:27;;;;;;;0.50;0.50;;;7.50;99.90;;;;;;5052963;28;20237;-83
2023/12/26 15:51:53;;;;;;;0.77;0.73;;;7.60;99.90;;;;;;5035138;28;20602;-83
2023/12/26 15:54:18;;;;;;;7.40;0.63;;;7.50;99.90;;;;;;5051914;28;20174;-84